Time;durP1;ratioP1;P1;durP2;ratioP2;P2;SDS_P1;SDS_P2;PMS_P1;PMS_P2;Temp;Humidity;BMP_temperature;BMP_pressure;BME280_temperature;BME280_humidity;BME280_pressure;Samples;Min_cycle;Max_cycle;Signal;HPM_P1;HPM_P2
2020/12/04 00:00:39;;;;;;;48.98;26.68;;;;;;;1.36;76.49;99885.21;1669003;83;25932;-81
2020/12/04 00:03:08;;;;;;;51.63;27.40;;;;;;;1.35;76.58;99883.53;1754643;81;25796;-81
2020/12/04 00:05:36;;;;;;;44.80;24.65;;;;;;;1.34;76.51;99891.12;1714214;83;25746;-81
2020/12/04 00:08:03;;;;;;;46.53;24.23;;;;;;;1.33;76.47;99888.13;1672651;82;27513;-82
2020/12/04 00:10:30;;;;;;;46.02;23.87;;;;;;;1.34;76.56;99892.92;1664844;83;26435;-80
2020/12/04 00:12:58;;;;;;;38.88;19.35;;;;;;;1.35;76.51;99881.38;1741620;81;25862;-80
2020/12/04 00:15:25;;;;;;;51.58;26.42;;;;;;;1.32;76.50;99874.61;1752325;79;25791;-81
2020/12/04 00:17:52;;;;;;;46.18;23.95;;;;;;;1.33;76.62;99874.09;1655769;83;25921;-80
2020/12/04 00:20:20;;;;;;;43.70;22.52;;;;;;;1.34;76.61;99875.30;1717352;81;28481;-81
2020/12/04 00:22:47;;;;;;;45.58;25.02;;;;;;;1.35;76.53;99866.87;1691333;83;25810;-80
2020/12/04 00:25:15;;;;;;;43.50;22.50;;;;;;;1.34;76.52;99867.38;1764745;80;25646;-81
2020/12/04 00:27:42;;;;;;;41.90;21.42;;;;;;;1.33;76.50;99871.46;1722392;80;26272;-80
2020/12/04 00:30:09;;;;;;;46.77;26.05;;;;;;;1.31;76.51;99869.45;1718278;80;25889;-80
2020/12/04 00:32:36;;;;;;;46.80;25.48;;;;;;;1.30;76.52;99872.61;1747368;80;28923;-80
2020/12/04 00:35:04;;;;;;;51.85;26.17;;;;;;;1.31;76.54;99854.47;1763933;80;25875;-81
2020/12/04 00:37:31;;;;;;;42.40;25.17;;;;;;;1.32;76.46;99854.83;1704525;81;25864;-81
2020/12/04 00:39:58;;;;;;;46.50;23.47;;;;;;;1.31;76.43;99866.82;1719630;80;26320;-80
2020/12/04 00:42:26;;;;;;;44.88;23.05;;;;;;;1.28;76.40;99863.98;1716487;80;25792;-80
2020/12/04 00:44:53;;;;;;;49.90;24.50;;;;;;;1.27;76.41;99855.73;1708715;83;28604;-79
2020/12/04 00:47:20;;;;;;;43.13;23.10;;;;;;;1.25;76.45;99855.05;1697917;80;25907;-80
2020/12/04 00:49:48;;;;;;;49.10;23.20;;;;;;;1.25;76.46;99851.58;1718267;80;25773;-81
2020/12/04 00:52:16;;;;;;;44.83;23.50;;;;;;;1.23;76.46;99853.05;1743734;80;25721;-81
2020/12/04 00:54:43;;;;;;;47.25;25.12;;;;;;;1.23;76.42;99854.85;1767702;80;26101;-80
2020/12/04 00:57:12;;;;;;;54.00;27.02;;;;;;;1.22;76.42;99858.48;1749306;80;27590;-80
2020/12/04 00:59:41;;;;;;;47.80;25.70;;;;;;;1.21;76.52;99856.33;1718771;81;26418;-82
2020/12/04 01:02:08;;;;;;;53.87;26.37;;;;;;;1.20;76.43;99855.97;1711128;80;25749;-80
2020/12/04 01:04:35;;;;;;;44.85;22.87;;;;;;;1.20;76.50;99850.70;1766478;80;25868;-80
2020/12/04 01:07:04;;;;;;;52.45;24.77;;;;;;;1.21;76.48;99852.85;1709882;80;25747;-82
2020/12/04 01:09:33;;;;;;;49.00;25.45;;;;;;;1.20;76.47;99845.90;1686969;82;28433;-80
2020/12/04 01:12:00;;;;;;;48.73;23.20;;;;;;;1.20;76.52;99853.33;1687305;82;25739;-80
2020/12/04 01:14:28;;;;;;;44.65;23.57;;;;;;;1.21;76.56;99854.17;1729502;82;25734;-80
2020/12/04 01:16:55;;;;;;;51.88;25.32;;;;;;;1.23;76.63;99849.58;1679484;82;26453;-80
2020/12/04 01:19:23;;;;;;;48.70;25.52;;;;;;;1.23;76.60;99849.09;1677406;82;25824;-80
2020/12/04 01:21:51;;;;;;;54.90;26.73;;;;;;;1.25;76.69;99841.03;1657783;82;27411;-80
2020/12/04 01:24:18;;;;;;;49.50;24.32;;;;;;;1.26;76.73;99849.30;1722508;82;25832;-80
2020/12/04 01:26:46;;;;;;;48.60;25.10;;;;;;;1.28;76.64;99847.34;1662394;82;25886;-80
2020/12/04 01:29:13;;;;;;;53.87;24.70;;;;;;;1.28;76.64;99844.19;1674776;82;25806;-80
2020/12/04 01:31:46;;;;;;;48.15;23.92;;;;;;;1.29;76.67;99826.56;1707509;82;25893;-80
2020/12/04 01:34:15;;;;;;;52.13;25.45;;;;;;;1.31;76.66;99824.13;1729626;82;27540;-80
2020/12/04 01:36:42;;;;;;;40.33;23.22;;;;;;;1.30;76.68;99833.03;1657310;82;25772;-81
2020/12/04 01:39:09;;;;;;;49.48;25.00;;;;;;;1.32;76.75;99819.20;1659243;83;26361;-80
2020/12/04 01:41:37;;;;;;;53.92;26.33;;;;;;;1.33;76.69;99831.41;1747455;80;25909;-80
2020/12/04 01:44:05;;;;;;;43.95;22.98;;;;;;;1.34;76.68;99827.80;1769205;80;26085;-81
2020/12/04 01:46:33;;;;;;;49.15;23.95;;;;;;;1.35;76.67;99814.94;1715349;81;27713;-81
2020/12/04 01:49:01;;;;;;;47.70;23.70;;;;;;;1.37;76.60;99804.23;1688993;80;25809;-80
2020/12/04 01:51:30;;;;;;;45.90;22.52;;;;;;;1.38;76.57;99794.03;1744780;81;25722;-81
2020/12/04 01:53:57;;;;;;;52.58;25.48;;;;;;;1.38;76.57;99794.87;1748917;80;25444;-79
2020/12/04 01:56:25;;;;;;;51.40;23.95;;;;;;;1.37;76.61;99787.91;1724307;80;25852;-80
2020/12/04 01:58:52;;;;;;;48.83;25.20;;;;;;;1.37;76.55;99777.84;1712203;80;28696;-81
2020/12/04 02:01:21;;;;;;;45.90;24.07;;;;;;;1.36;76.53;99773.56;1716569;80;25414;-80
2020/12/04 02:03:48;;;;;;;49.45;24.92;;;;;;;1.35;76.56;99774.53;1744666;81;25467;-80
2020/12/04 02:06:30;;;;;;;51.77;24.80;;;;;;;1.35;76.57;99771.89;1713169;83;25777;-81
2020/12/04 02:09:08;;;;;;;44.30;22.87;;;;;;;1.34;76.55;99766.28;1677264;83;25419;-80
2020/12/04 02:11:38;;;;;;;47.00;23.98;;;;;;;1.35;76.55;99760.85;1718739;82;27667;-80
2020/12/04 02:14:05;;;;;;;50.65;25.85;;;;;;;1.35;76.57;99752.94;1744289;80;25751;-80
2020/12/04 02:16:37;;;;;;;46.13;23.47;;;;;;;1.37;76.57;99752.30;1642452;85;25497;-79
2020/12/04 02:19:03;;;;;;;46.27;23.60;;;;;;;1.36;76.49;99746.70;1706285;83;25857;-80
2020/12/04 02:21:31;;;;;;;45.70;23.75;;;;;;;1.37;76.59;99743.55;1693597;83;26190;-81
2020/12/04 02:23:59;;;;;;;47.73;24.90;;;;;;;1.37;76.53;99744.38;1659943;83;27488;-80
2020/12/04 02:26:28;;;;;;;47.20;25.05;;;;;;;1.37;76.53;99747.02;1667772;83;26095;-80
2020/12/04 02:28:55;;;;;;;51.45;25.43;;;;;;;1.38;76.53;99740.78;1670853;83;25915;-80
2020/12/04 02:31:22;;;;;;;40.52;21.87;;;;;;;1.40;76.57;99742.78;1670219;83;26246;-81
2020/12/04 02:33:50;;;;;;;44.58;24.15;;;;;;;1.41;76.54;99751.53;1752088;80;25752;-80
2020/12/04 02:36:17;;;;;;;49.45;21.33;;;;;;;1.42;76.55;99755.81;1711041;81;27549;-81
2020/12/04 02:38:44;;;;;;;46.95;22.42;;;;;;;1.42;76.53;99742.14;1683424;81;26486;-81
2020/12/04 02:41:13;;;;;;;48.33;24.80;;;;;;;1.44;76.50;99742.81;1731885;81;25764;-80
2020/12/04 02:43:40;;;;;;;44.25;22.48;;;;;;;1.45;76.53;99743.66;1758450;81;26491;-81
2020/12/04 02:46:08;;;;;;;42.83;22.73;;;;;;;1.46;76.49;99746.13;1708329;81;26154;-80
2020/12/04 02:48:36;;;;;;;47.00;23.05;;;;;;;1.46;76.44;99743.98;1735303;81;28559;-80
2020/12/04 02:51:08;;;;;;;51.10;23.38;;;;;;;1.45;76.45;99741.81;1749263;80;25880;-82
2020/12/04 02:53:35;;;;;;;46.23;23.10;;;;;;;1.47;76.47;99743.02;1766814;80;25863;-80
2020/12/04 02:56:02;;;;;;;49.45;24.02;;;;;;;1.49;76.40;99751.61;1719109;80;25785;-80
2020/12/04 02:58:31;;;;;;;45.40;23.00;;;;;;;1.47;76.37;99745.66;1725089;80;26142;-80
2020/12/04 03:00:59;;;;;;;40.73;20.08;;;;;;;1.49;76.44;99747.65;1750910;80;27315;-80
2020/12/04 03:03:26;;;;;;;50.90;25.23;;;;;;;1.51;76.45;99732.01;1762437;80;26464;-80
2020/12/04 03:05:53;;;;;;;49.00;24.40;;;;;;;1.52;76.42;99735.45;1723360;81;25385;-81
2020/12/04 03:08:25;;;;;;;52.73;23.50;;;;;;;1.54;76.44;99730.85;1725068;80;26440;-80
2020/12/04 03:10:50;;;;;;;51.10;26.02;;;;;;;1.53;76.36;99730.05;1722680;80;25965;-80
2020/12/04 03:13:17;;;;;;;50.52;23.57;;;;;;;1.52;76.34;99720.45;1764451;80;28445;-80
2020/12/04 03:15:44;;;;;;;48.63;24.67;;;;;;;1.52;76.37;99716.50;1718066;81;25779;-80
2020/12/04 03:18:12;;;;;;;50.00;23.05;;;;;;;1.54;76.42;99714.53;1744720;80;25825;-80
2020/12/04 03:20:39;;;;;;;48.58;23.98;;;;;;;1.55;76.41;99718.85;1747946;80;25980;-80
2020/12/04 03:23:06;;;;;;;48.87;24.32;;;;;;;1.56;76.28;99702.53;1751755;80;25814;-80
2020/12/04 03:25:34;;;;;;;46.88;23.67;;;;;;;1.55;76.35;99704.33;1701469;80;27551;-80
2020/12/04 03:28:02;;;;;;;47.85;23.22;;;;;;;1.56;76.27;99708.61;1718057;80;26445;-80
2020/12/04 03:30:29;;;;;;;51.77;25.37;;;;;;;1.54;76.31;99717.17;1744716;80;25881;-80
2020/12/04 03:32:57;;;;;;;45.12;22.20;;;;;;;1.55;76.30;99711.42;1765738;80;25890;-79
2020/12/04 03:35:24;;;;;;;48.13;24.25;;;;;;;1.56;76.30;99713.09;1722233;80;26451;-80
2020/12/04 03:37:51;;;;;;;50.90;25.48;;;;;;;1.57;76.33;99701.53;1723674;80;27751;-80
2020/12/04 03:40:18;;;;;;;43.80;22.82;;;;;;;1.60;76.30;99705.69;1746430;80;25922;-80
2020/12/04 03:42:46;;;;;;;47.55;24.10;;;;;;;1.62;76.40;99698.45;1763082;80;25810;-79
2020/12/04 03:45:13;;;;;;;41.98;21.12;;;;;;;1.64;76.30;99684.60;1698770;80;26637;-79
2020/12/04 03:47:40;;;;;;;43.42;21.85;;;;;;;1.63;76.17;99687.73;1725006;80;25939;-80
2020/12/04 03:50:08;;;;;;;48.25;23.75;;;;;;;1.63;76.18;99678.48;1744899;80;27337;-80
2020/12/04 03:52:35;;;;;;;49.50;23.62;;;;;;;1.62;76.13;99683.45;1746931;80;26486;-80
2020/12/04 03:55:02;;;;;;;49.20;25.17;;;;;;;1.63;76.15;99684.25;1696950;80;26617;-81
2020/12/04 03:57:30;;;;;;;53.02;26.02;;;;;;;1.62;76.10;99684.77;1723112;80;25805;-80
2020/12/04 03:59:57;;;;;;;50.92;24.32;;;;;;;1.62;76.05;99674.69;1750197;80;26162;-80
2020/12/04 04:02:25;;;;;;;53.42;23.80;;;;;;;1.61;76.06;99676.49;1714310;82;28463;-80
2020/12/04 04:04:52;;;;;;;47.43;23.25;;;;;;;1.57;76.02;99680.42;1687672;82;26162;-80
2020/12/04 04:07:19;;;;;;;66.47;30.92;;;;;;;1.54;76.05;99682.03;1736280;81;25983;-80
2020/12/04 04:09:47;;;;;;;73.07;34.88;;;;;;;1.52;76.12;99687.95;1683518;81;25870;-81
2020/12/04 04:12:14;;;;;;;57.05;28.00;;;;;;;1.51;76.04;99683.19;1753906;81;26351;-80
2020/12/04 04:14:42;;;;;;;54.45;26.07;;;;;;;1.49;76.04;99676.40;1705792;81;28579;-79
2020/12/04 04:17:09;;;;;;;53.75;26.40;;;;;;;1.46;76.06;99672.25;1681865;81;26598;-80
2020/12/04 04:19:36;;;;;;;48.78;22.55;;;;;;;1.45;76.07;99660.02;1738338;81;25892;-80
2020/12/04 04:22:04;;;;;;;43.40;22.77;;;;;;;1.42;76.08;99659.02;1751759;81;25834;-81
2020/12/04 04:24:31;;;;;;;45.00;20.40;;;;;;;1.40;76.11;99647.80;1701996;80;26241;-80
2020/12/04 04:26:58;;;;;;;49.27;25.00;;;;;;;1.37;76.16;99643.28;1700370;81;27640;-80
2020/12/04 04:29:26;;;;;;;45.78;22.02;;;;;;;1.35;76.27;99651.36;1727756;81;25743;-80
2020/12/04 04:31:53;;;;;;;46.58;21.82;;;;;;;1.35;76.28;99653.16;1749897;81;25841;-80
2020/12/04 04:34:21;;;;;;;49.33;24.23;;;;;;;1.33;76.32;99653.81;1686065;81;25772;-81
2020/12/04 04:36:48;;;;;;;48.05;24.18;;;;;;;1.32;76.40;99650.84;1721475;81;25856;-79
2020/12/04 04:39:15;;;;;;;46.13;23.30;;;;;;;1.32;76.46;99659.59;1730940;81;28206;-80
2020/12/04 04:41:44;;;;;;;52.38;26.35;;;;;;;1.30;76.46;99668.64;1752758;80;26382;-81
2020/12/04 04:44:13;;;;;;;50.83;23.67;;;;;;;1.28;76.57;99668.77;1708908;81;25761;-80
2020/12/04 04:46:51;;;;;;;49.15;23.65;;;;;;;1.26;76.64;99665.45;1733846;81;26736;-79
2020/12/04 04:49:29;;;;;;;52.73;24.95;;;;;;;1.27;76.70;99666.28;1665788;83;26058;-80
2020/12/04 04:51:58;;;;;;;51.95;26.05;;;;;;;1.25;76.71;99662.48;1746616;81;26884;-80
2020/12/04 04:54:27;;;;;;;49.42;24.07;;;;;;;1.25;76.75;99661.17;1713632;81;25863;-80
2020/12/04 04:56:55;;;;;;;47.17;22.22;;;;;;;1.25;76.77;99669.56;1705429;81;25827;-81
2020/12/04 04:59:22;;;;;;;49.18;24.40;;;;;;;1.25;76.82;99673.52;1729970;82;26260;-80
2020/12/04 05:01:50;;;;;;;48.60;24.00;;;;;;;1.25;76.88;99665.13;1721907;82;26074;-80
2020/12/04 05:04:18;;;;;;;46.40;23.67;;;;;;;1.26;76.92;99664.64;1667784;83;28608;-80
2020/12/04 05:06:45;;;;;;;47.95;23.90;;;;;;;1.25;76.94;99666.93;1670024;83;25946;-80
2020/12/04 05:12:00;;;;;;;49.43;29.23;;;;;;;1.32;76.94;99662.72;1783378;79;32418;-81
2020/12/04 05:14:27;;;;;;;51.77;26.33;;;;;;;1.47;76.38;99655.94;1762910;80;26611;-80
2020/12/04 05:16:57;;;;;;;54.33;28.12;;;;;;;1.43;76.50;99660.66;1738184;80;27317;-80
2020/12/04 05:19:41;;;;;;;49.60;25.48;;;;;;;1.38;76.63;99658.98;1766413;80;25805;-80
2020/12/04 05:22:15;;;;;;;56.83;28.12;;;;;;;1.35;76.77;99662.41;1677238;83;25928;-80
2020/12/04 05:24:44;;;;;;;54.03;26.60;;;;;;;1.32;76.75;99659.59;1681957;81;26334;-79
2020/12/04 05:27:31;;;;;;;51.30;26.27;;;;;;;1.31;76.81;99670.28;1690271;83;26011;-80
2020/12/04 05:30:00;;;;;;;53.00;25.15;;;;;;;1.30;76.87;99668.64;1702154;81;28571;-80
2020/12/04 05:32:28;;;;;;;47.05;24.65;;;;;;;1.29;76.92;99676.20;1635486;83;26334;-80
2020/12/04 05:35:09;;;;;;;55.43;27.07;;;;;;;1.27;76.91;99683.44;1708079;81;26115;-80
2020/12/04 05:37:36;;;;;;;56.70;27.15;;;;;;;1.27;76.96;99697.94;1701778;82;26056;-79
2020/12/04 05:40:04;;;;;;;53.70;25.90;;;;;;;1.26;77.03;99696.30;1708760;81;26272;-80
2020/12/04 05:42:41;;;;;;;53.08;26.30;;;;;;;1.26;76.97;99696.30;1645387;82;28510;-80
2020/12/04 05:45:08;;;;;;;48.45;23.90;;;;;;;1.26;77.04;99692.34;1691787;81;25965;-80
2020/12/04 05:47:43;;;;;;;47.55;23.25;;;;;;;1.26;77.04;99694.47;1708610;81;26435;-80
2020/12/04 05:50:13;;;;;;;51.95;26.02;;;;;;;1.28;77.10;99691.19;1731721;81;26124;-80
2020/12/04 05:52:41;;;;;;;45.40;22.77;;;;;;;1.29;77.06;99688.07;1666949;83;26781;-80
2020/12/04 05:55:10;;;;;;;54.60;26.93;;;;;;;1.27;77.07;99686.07;1685902;81;27607;-80
2020/12/04 05:57:51;;;;;;;55.70;27.20;;;;;;;1.25;77.05;99683.59;1681402;83;25856;-79
2020/12/04 06:00:19;;;;;;;56.23;28.57;;;;;;;1.24;77.14;99681.92;1732393;81;25807;-80
2020/12/04 06:03:02;;;;;;;51.00;25.10;;;;;;;1.23;77.22;99688.67;1660065;81;26528;-80
2020/12/04 06:05:31;;;;;;;50.38;24.35;;;;;;;1.22;77.21;99694.43;1707254;83;25692;-80
2020/12/04 06:08:04;;;;;;;55.17;25.50;;;;;;;1.26;77.36;99690.52;1703586;81;28504;-80
2020/12/04 06:10:33;;;;;;;63.68;28.17;;;;;;;1.26;77.27;99685.75;1722914;82;26127;-80
2020/12/04 06:13:02;;;;;;;49.70;23.70;;;;;;;1.25;77.34;99680.12;1645056;84;26020;-80
2020/12/04 06:15:32;;;;;;;48.60;23.85;;;;;;;1.26;77.48;99669.41;1677441;82;25911;-80
2020/12/04 06:18:06;;;;;;;55.90;25.65;;;;;;;1.26;77.46;99669.92;1700006;82;26026;-82
2020/12/04 06:20:46;;;;;;;58.85;27.15;;;;;;;1.28;77.48;99675.88;1726671;81;27617;-80
2020/12/04 06:23:23;;;;;;;53.75;26.68;;;;;;;1.35;77.44;99663.72;1806938;79;25642;-80
2020/12/04 06:25:56;;;;;;;52.83;26.30;;;;;;;1.29;77.49;99657.25;1688222;81;25903;-80
2020/12/04 06:28:32;;;;;;;52.95;26.15;;;;;;;1.32;77.55;99667.52;1688899;82;28764;-79
2020/12/04 06:31:09;;;;;;;53.02;26.45;;;;;;;1.34;77.61;99672.63;1688250;83;25902;-81
2020/12/04 06:33:44;;;;;;;57.75;25.00;;;;;;;1.34;77.61;99673.95;1664830;84;25893;-80
2020/12/04 06:36:31;;;;;;;55.40;26.12;;;;;;;1.36;77.61;99671.50;1636688;84;25617;-81
2020/12/04 06:39:00;;;;;;;56.37;26.27;;;;;;;1.36;77.67;99671.98;1655536;84;25811;-79
2020/12/04 06:41:38;;;;;;;46.77;24.85;;;;;;;1.37;77.66;99682.38;1686341;84;27542;-80
2020/12/04 06:44:21;;;;;;;47.17;24.20;;;;;;;1.39;77.64;99688.84;1632891;86;26112;-79
2020/12/04 06:46:51;;;;;;;47.83;24.10;;;;;;;1.40;77.69;99690.01;1661911;84;25992;-81
2020/12/04 06:52:16;;;;;;;48.45;24.90;;;;;;;1.46;77.65;99697.31;1683650;84;25770;-81
2020/12/04 06:54:47;;;;;;;46.13;22.93;;;;;;;1.48;77.59;99682.16;1692349;84;28857;-80
2020/12/04 06:57:21;;;;;;;46.20;24.63;;;;;;;1.50;77.62;99689.44;1657525;84;26032;-80
2020/12/04 06:59:48;;;;;;;45.67;22.75;;;;;;;1.52;77.64;99695.39;1664230;84;25807;-80
2020/12/04 07:02:19;;;;;;;49.73;25.43;;;;;;;1.54;77.59;99688.14;1667035;83;25909;-80
2020/12/04 07:04:50;;;;;;;45.38;23.20;;;;;;;1.57;77.58;99689.66;1658164;84;25959;-80
2020/12/04 07:07:26;;;;;;;50.08;25.05;;;;;;;1.59;77.48;99682.42;1689081;83;27613;-80
2020/12/04 07:10:01;;;;;;;51.40;26.60;;;;;;;1.60;77.48;99678.81;1728102;81;25903;-80
2020/12/04 07:12:31;;;;;;;49.10;25.17;;;;;;;1.62;77.50;99679.97;1708309;83;25893;-80
2020/12/04 07:15:00;;;;;;;42.27;21.60;;;;;;;1.66;77.54;99681.32;1666914;83;26386;-80
2020/12/04 07:17:30;;;;;;;41.80;22.55;;;;;;;1.67;77.36;99701.47;1681457;83;25749;-80
2020/12/04 07:19:59;;;;;;;35.98;19.65;;;;;;;1.67;77.41;99693.03;1681332;83;27177;-80
2020/12/04 07:22:27;;;;;;;40.48;20.35;;;;;;;1.70;77.37;99688.78;1700716;82;26456;-80
2020/12/04 07:24:56;;;;;;;49.65;26.95;;;;;;;1.74;77.33;99701.17;1646253;84;25910;-80
2020/12/04 07:27:29;;;;;;;48.73;23.22;;;;;;;1.76;77.21;99698.73;1705582;83;26241;-79
2020/12/04 07:29:57;;;;;;;49.30;25.75;;;;;;;1.79;77.26;99698.44;1696132;83;25783;-79
2020/12/04 07:32:26;;;;;;;45.12;24.10;;;;;;;1.84;77.24;99700.11;1713629;83;27549;-81
2020/12/04 07:34:54;;;;;;;50.63;26.12;;;;;;;1.88;77.16;99700.14;1662188;84;26573;-80
2020/12/04 07:37:27;;;;;;;45.67;23.92;;;;;;;1.92;77.11;99694.91;1708362;82;25748;-80
2020/12/04 07:39:55;;;;;;;44.03;23.15;;;;;;;1.95;76.99;99694.59;1695241;82;26068;-80
2020/12/04 07:42:23;;;;;;;42.58;21.77;;;;;;;1.98;76.92;99685.05;1719939;82;26401;-80
2020/12/04 07:44:53;;;;;;;43.10;22.20;;;;;;;2.02;76.94;99685.08;1673174;83;27616;-81
2020/12/04 07:47:21;;;;;;;;;;;;;;;2.04;76.87;99676.50;1710042;82;25857;-81
2020/12/04 07:49:54;;;;;;;44.00;25.05;;;;;;;2.07;76.82;99671.41;1692100;83;26387;-80
2020/12/04 07:52:30;;;;;;;49.20;24.32;;;;;;;2.08;76.85;99676.52;1692012;83;26285;-81
2020/12/04 07:55:10;;;;;;;44.40;22.48;;;;;;;2.14;76.84;99679.02;1701726;82;25975;-81
2020/12/04 07:58:00;;;;;;;42.73;21.75;;;;;;;2.18;76.66;99679.88;1701626;83;27541;-79
2020/12/04 08:00:35;;;;;;;49.60;25.08;;;;;;;2.23;76.76;99682.06;1714333;83;25816;-79
2020/12/04 08:03:14;;;;;;;41.05;21.93;;;;;;;2.28;76.66;99686.39;1663568;84;26396;-80
2020/12/04 08:05:42;;;;;;;40.08;21.93;;;;;;;2.31;76.66;99680.78;1667285;82;25796;-80
2020/12/04 08:08:10;;;;;;;42.85;22.13;;;;;;;2.35;76.61;99682.16;1710941;81;26140;-79
2020/12/04 08:10:38;;;;;;;38.17;21.95;;;;;;;2.39;76.58;99686.13;1704486;82;28268;-80
2020/12/04 08:13:09;;;;;;;48.87;25.80;;;;;;;2.41;76.35;99677.55;1697054;84;26165;-81
2020/12/04 08:15:43;;;;;;;41.70;21.82;;;;;;;2.43;76.38;99670.78;1697207;84;25808;-79
2020/12/04 08:18:10;;;;;;;36.08;18.27;;;;;;;2.45;76.16;99667.48;1693652;84;25845;-80
2020/12/04 08:20:39;;;;;;;46.53;24.25;;;;;;;2.47;76.20;99673.44;1692557;82;26052;-80
2020/12/04 08:23:06;;;;;;;45.75;23.47;;;;;;;2.47;76.17;99672.95;1684253;83;27547;-80
2020/12/04 08:25:34;;;;;;;43.45;22.52;;;;;;;2.47;76.10;99673.44;1711189;82;25843;-81
2020/12/04 08:28:05;;;;;;;39.58;21.75;;;;;;;2.50;76.20;99681.91;1722044;81;26489;-80
2020/12/04 08:30:34;;;;;;;44.63;23.62;;;;;;;2.53;76.26;99679.41;1686859;82;25768;-81
2020/12/04 08:33:05;;;;;;;51.42;24.27;;;;;;;2.55;76.23;99685.37;1708713;82;25913;-79
2020/12/04 08:35:40;;;;;;;48.95;25.57;;;;;;;2.58;76.31;99689.87;1705792;83;27771;-79
2020/12/04 08:38:13;;;;;;;53.30;26.82;;;;;;;2.61;76.29;99682.12;1670361;84;25861;-81
2020/12/04 08:40:49;;;;;;;54.93;27.37;;;;;;;2.65;76.00;99678.97;1667410;84;25897;-80
2020/12/04 08:43:21;;;;;;;96.80;52.38;;;;;;;2.68;76.20;99681.31;1667901;84;26108;-81
2020/12/04 08:45:55;;;;;;;68.70;36.23;;;;;;;2.71;76.19;99670.43;1643746;84;25840;-80
2020/12/04 08:48:32;;;;;;;52.58;30.05;;;;;;;2.76;76.21;99672.60;1689288;84;28333;-80
2020/12/04 08:51:06;;;;;;;42.27;23.47;;;;;;;2.81;76.14;99668.97;1684707;82;25900;-80
2020/12/04 08:53:35;;;;;;;45.88;23.32;;;;;;;2.83;76.02;99680.20;1659948;83;25791;-80
2020/12/04 08:56:05;;;;;;;47.85;24.77;;;;;;;2.84;75.93;99676.11;1686016;83;26200;-81
2020/12/04 08:58:33;;;;;;;46.08;26.33;;;;;;;2.85;75.85;99665.00;1680147;81;25795;-80
2020/12/04 09:01:00;;;;;;;49.38;25.48;;;;;;;2.85;75.80;99650.46;1658475;84;27408;-81
2020/12/04 09:03:30;;;;;;;41.92;24.05;;;;;;;2.86;75.82;99660.06;1667139;84;26352;-80
2020/12/04 09:05:57;;;;;;;48.63;27.60;;;;;;;2.86;75.81;99668.84;1684585;84;25872;-80
2020/12/04 09:08:25;;;;;;;53.02;26.30;;;;;;;2.85;75.91;99661.88;1653247;84;26167;-80
2020/12/04 09:10:52;;;;;;;51.42;26.23;;;;;;;2.88;75.73;99658.09;1657585;84;26292;-80
2020/12/04 09:13:21;;;;;;;46.02;24.12;;;;;;;2.87;75.83;99666.51;1675793;83;28447;-79
2020/12/04 09:15:48;;;;;;;48.30;26.07;;;;;;;2.90;75.84;99664.88;1717583;81;25901;-80
2020/12/04 09:18:16;;;;;;;45.90;23.45;;;;;;;2.94;75.99;99675.95;1703663;81;25835;-80
2020/12/04 09:20:46;;;;;;;41.58;22.77;;;;;;;2.97;75.79;99675.64;1685556;83;25971;-81
2020/12/04 09:23:13;;;;;;;47.75;24.50;;;;;;;2.98;75.84;99680.77;1661794;83;26099;-80
2020/12/04 09:25:41;;;;;;;46.60;24.10;;;;;;;3.01;75.66;99677.81;1667239;83;27718;-80
2020/12/04 09:28:10;;;;;;;43.65;25.10;;;;;;;3.03;75.77;99674.52;1677736;81;25822;-80
2020/12/04 09:30:37;;;;;;;48.25;25.72;;;;;;;3.05;75.69;99680.95;1660418;83;25802;-80
2020/12/04 09:33:05;;;;;;;44.33;23.62;;;;;;;3.06;75.69;99677.30;1656973;83;26127;-81
2020/12/04 09:35:32;;;;;;;51.45;26.57;;;;;;;3.07;75.73;99657.81;1690230;84;25965;-81
2020/12/04 09:38:02;;;;;;;41.35;21.80;;;;;;;3.08;75.76;99658.95;1661723;84;27615;-82
2020/12/04 09:40:30;;;;;;;47.70;24.65;;;;;;;3.10;75.71;99640.30;1656111;84;25926;-80
2020/12/04 09:42:57;;;;;;;46.98;25.57;;;;;;;3.10;75.64;99626.55;1655726;86;25909;-81
2020/12/04 09:45:25;;;;;;;50.30;26.00;;;;;;;3.11;75.59;99626.06;1681213;84;25793;-81
2020/12/04 09:47:52;;;;;;;40.20;23.25;;;;;;;3.12;75.73;99623.77;1678806;84;25820;-81
2020/12/04 09:50:20;;;;;;;44.65;23.98;;;;;;;3.14;75.74;99623.11;1663581;83;27270;-81
2020/12/04 09:52:47;;;;;;;43.55;21.70;;;;;;;3.15;75.74;99619.45;1705642;83;26478;-80
2020/12/04 09:55:15;;;;;;;44.85;25.20;;;;;;;3.16;75.73;99617.64;1688978;84;25760;-80
2020/12/04 09:57:43;;;;;;;49.98;25.08;;;;;;;3.18;75.74;99616.98;1721028;81;25878;-81
2020/12/04 10:00:14;;;;;;;43.60;23.52;;;;;;;3.21;75.75;99615.34;1678512;83;26074;-81
2020/12/04 10:02:42;;;;;;;50.60;25.92;;;;;;;3.22;75.77;99618.30;1653219;84;28304;-81
2020/12/04 10:05:09;;;;;;;47.48;25.65;;;;;;;3.23;75.62;99621.30;1652507;84;26050;-81
2020/12/04 10:07:37;;;;;;;39.55;22.22;;;;;;;3.23;75.67;99634.02;1646250;85;25889;-81
2020/12/04 10:10:06;;;;;;;48.65;24.37;;;;;;;3.27;75.71;99637.18;1684204;84;25893;-83
2020/12/04 10:12:35;;;;;;;;;;;;;;;3.28;75.62;99644.11;1667198;84;26044;-81
2020/12/04 10:15:03;;;;;;;40.63;22.02;;;;;;;3.28;75.72;99641.46;1677800;84;27411;-81
2020/12/04 10:17:31;;;;;;;48.17;24.87;;;;;;;3.31;75.75;99641.15;1688281;82;26608;-82
2020/12/04 10:19:59;;;;;;;43.30;22.37;;;;;;;3.34;75.72;99631.54;1664193;84;25849;-81
2020/12/04 10:22:27;;;;;;;45.58;23.65;;;;;;;3.38;75.72;99640.31;1667028;83;26018;-80
2020/12/04 10:24:57;;;;;;;44.13;22.37;;;;;;;3.40;75.73;99617.67;1709557;83;25784;-80
2020/12/04 10:27:26;;;;;;;42.98;22.55;;;;;;;3.43;75.72;99629.23;1692924;84;27598;-80
2020/12/04 10:29:56;;;;;;;43.42;24.15;;;;;;;3.46;75.60;99628.43;1636354;84;26361;-80
2020/12/04 10:32:24;;;;;;;46.10;24.95;;;;;;;3.48;75.23;99615.86;1686276;84;25976;-80
2020/12/04 10:34:52;;;;;;;43.85;23.10;;;;;;;3.49;75.41;99606.91;1679444;84;25837;-81
2020/12/04 10:37:19;;;;;;;46.23;22.52;;;;;;;3.52;75.43;99600.45;1692436;84;25740;-81
2020/12/04 10:39:47;;;;;;;46.65;23.15;;;;;;;3.54;75.44;99607.73;1662340;84;27623;-81
2020/12/04 10:42:15;;;;;;;46.53;22.65;;;;;;;3.56;75.42;99600.45;1656079;86;25893;-80
2020/12/04 10:44:42;;;;;;;55.00;25.90;;;;;;;3.58;75.35;99592.68;1660109;84;26509;-80
2020/12/04 10:47:11;;;;;;;46.33;25.48;;;;;;;3.60;75.22;99581.91;1671887;84;25849;-80
2020/12/04 10:49:38;;;;;;;60.45;32.30;;;;;;;3.61;75.20;99581.77;1657022;84;25741;-81
2020/12/04 10:52:05;;;;;;;80.32;39.58;;;;;;;3.65;75.04;99570.33;1686991;84;27539;-81
2020/12/04 10:54:33;;;;;;;59.05;35.70;;;;;;;3.67;75.21;99581.09;1664771;84;26403;-81
2020/12/04 10:57:00;;;;;;;45.05;25.05;;;;;;;3.70;75.20;99585.23;1681680;84;25790;-81
2020/12/04 10:59:30;;;;;;;43.92;24.18;;;;;;;3.72;75.04;99577.94;1625739;84;25900;-82
2020/12/04 11:02:06;;;;;;;45.50;24.70;;;;;;;3.76;75.29;99578.73;1668378;84;25950;-81
2020/12/04 11:07:13;;;;;;;50.35;23.80;;;;;;;3.83;75.20;99568.30;1688540;84;26248;-81
2020/12/04 11:09:40;;;;;;;48.52;22.90;;;;;;;3.85;75.22;99571.11;1660271;84;25889;-80
2020/12/04 11:12:08;;;;;;;46.40;25.30;;;;;;;3.89;75.17;99567.13;1666060;84;26425;-80
2020/12/04 11:14:42;;;;;;;47.93;23.52;;;;;;;3.94;75.12;99553.38;1668597;84;25916;-81
2020/12/04 11:17:06;;;;;;;44.83;22.48;;;;;;;3.96;74.78;99550.58;1684232;84;27775;-80
2020/12/04 11:19:35;;;;;;;43.15;24.45;;;;;;;3.97;74.64;99545.10;1648686;83;26456;-80
2020/12/04 11:22:03;;;;;;;44.27;24.07;;;;;;;3.98;74.46;99539.31;1654062;84;25737;-80
2020/12/04 11:24:30;;;;;;;50.60;25.48;;;;;;;3.98;74.59;99549.91;1714660;82;26358;-80
2020/12/04 11:27:00;;;;;;;43.30;22.48;;;;;;;3.96;74.38;99548.73;1690729;83;25871;-80
2020/12/04 11:29:28;;;;;;;46.30;23.80;;;;;;;3.96;74.50;99541.30;1626187;83;27543;-81
2020/12/04 11:31:56;;;;;;;48.13;25.20;;;;;;;3.96;74.64;99535.48;1670038;83;25887;-80
2020/12/04 11:34:23;;;;;;;53.28;25.70;;;;;;;3.97;74.42;99527.05;1670116;84;26123;-81
2020/12/04 11:36:52;;;;;;;44.20;23.30;;;;;;;3.97;74.66;99513.80;1695777;84;25853;-81
2020/12/04 11:39:19;;;;;;;54.10;25.65;;;;;;;3.98;74.46;99519.44;1689352;83;26243;-80
2020/12/04 11:41:49;;;;;;;37.98;19.00;;;;;;;3.99;74.74;99503.36;1669862;83;28359;-81
2020/12/04 11:44:16;;;;;;;39.33;21.20;;;;;;;4.00;74.38;99501.55;1714537;82;25738;-81